sensor_id;sensor_type;location;lat;lon;timestamp;temperature;humidity
51557;DHT22;38766;53.194;5.532;2023-06-22T00:00:49;20.40;99.90
51557;DHT22;38766;53.194;5.532;2023-06-22T00:03:16;20.30;99.90
51557;DHT22;38766;53.194;5.532;2023-06-22T00:05:42;20.30;99.90
51557;DHT22;38766;53.194;5.532;2023-06-22T00:08:08;20.30;99.90
51557;DHT22;38766;53.194;5.532;2023-06-22T00:10:34;20.20;99.90
51557;DHT22;38766;53.194;5.532;2023-06-22T00:12:59;20.20;99.90
51557;DHT22;38766;53.194;5.532;2023-06-22T00:15:25;20.20;99.90
51557;DHT22;38766;53.194;5.532;2023-06-22T00:17:51;20.20;99.90
51557;DHT22;38766;53.194;5.532;2023-06-22T00:20:16;20.20;99.90
51557;DHT22;38766;53.194;5.532;2023-06-22T00:22:44;20.20;99.90
51557;DHT22;38766;53.194;5.532;2023-06-22T00:25:10;20.20;99.90
51557;DHT22;38766;53.194;5.532;2023-06-22T00:27:36;20.10;99.90
51557;DHT22;38766;53.194;5.532;2023-06-22T00:30:02;20.20;99.90
51557;DHT22;38766;53.194;5.532;2023-06-22T00:32:28;20.20;99.90
51557;DHT22;38766;53.194;5.532;2023-06-22T00:34:54;20.20;99.90
51557;DHT22;38766;53.194;5.532;2023-06-22T00:37:20;20.20;99.90
51557;DHT22;38766;53.194;5.532;2023-06-22T00:39:53;20.20;99.90
51557;DHT22;38766;53.194;5.532;2023-06-22T00:42:19;20.20;99.90
51557;DHT22;38766;53.194;5.532;2023-06-22T00:44:45;20.20;99.90
51557;DHT22;38766;53.194;5.532;2023-06-22T00:47:12;20.10;99.90
51557;DHT22;38766;53.194;5.532;2023-06-22T00:49:39;20.10;99.90
51557;DHT22;38766;53.194;5.532;2023-06-22T00:52:06;20.10;99.90
51557;DHT22;38766;53.194;5.532;2023-06-22T00:54:41;20.10;99.90
51557;DHT22;38766;53.194;5.532;2023-06-22T00:57:14;20.10;99.90
51557;DHT22;38766;53.194;5.532;2023-06-22T00:59:45;20.10;99.90
51557;DHT22;38766;53.194;5.532;2023-06-22T01:02:11;20.10;99.90
51557;DHT22;38766;53.194;5.532;2023-06-22T01:04:38;20.10;99.90
51557;DHT22;38766;53.194;5.532;2023-06-22T01:09:38;20.00;99.90
51557;DHT22;38766;53.194;5.532;2023-06-22T01:12:07;20.00;99.90
51557;DHT22;38766;53.194;5.532;2023-06-22T01:17:00;19.90;99.90
51557;DHT22;38766;53.194;5.532;2023-06-22T01:19:46;19.90;99.90
51557;DHT22;38766;53.194;5.532;2023-06-22T01:22:16;19.90;99.90
51557;DHT22;38766;53.194;5.532;2023-06-22T01:27:53;19.80;99.90
51557;DHT22;38766;53.194;5.532;2023-06-22T01:30:22;19.70;99.90
51557;DHT22;38766;53.194;5.532;2023-06-22T01:32:53;19.70;99.90
51557;DHT22;38766;53.194;5.532;2023-06-22T01:35:20;19.80;99.90
51557;DHT22;38766;53.194;5.532;2023-06-22T01:37:46;19.70;99.90
51557;DHT22;38766;53.194;5.532;2023-06-22T01:40:13;19.70;99.90
51557;DHT22;38766;53.194;5.532;2023-06-22T01:42:40;19.70;99.90
51557;DHT22;38766;53.194;5.532;2023-06-22T01:45:07;19.70;99.90
51557;DHT22;38766;53.194;5.532;2023-06-22T01:47:34;19.70;99.90
51557;DHT22;38766;53.194;5.532;2023-06-22T01:49:59;19.60;99.90
51557;DHT22;38766;53.194;5.532;2023-06-22T01:52:25;19.70;99.90
51557;DHT22;38766;53.194;5.532;2023-06-22T01:54:51;19.60;99.90
51557;DHT22;38766;53.194;5.532;2023-06-22T01:57:17;19.60;99.90
51557;DHT22;38766;53.194;5.532;2023-06-22T02:02:20;19.60;99.90
51557;DHT22;38766;53.194;5.532;2023-06-22T02:04:55;19.60;99.90
51557;DHT22;38766;53.194;5.532;2023-06-22T02:07:23;19.60;99.90
51557;DHT22;38766;53.194;5.532;2023-06-22T02:09:53;19.60;99.90
51557;DHT22;38766;53.194;5.532;2023-06-22T02:12:23;19.50;99.90
51557;DHT22;38766;53.194;5.532;2023-06-22T02:14:51;19.50;99.90
51557;DHT22;38766;53.194;5.532;2023-06-22T02:17:17;19.50;99.90
51557;DHT22;38766;53.194;5.532;2023-06-22T02:19:44;19.50;99.90
51557;DHT22;38766;53.194;5.532;2023-06-22T02:22:09;19.50;99.90
51557;DHT22;38766;53.194;5.532;2023-06-22T02:24:35;19.50;99.90
51557;DHT22;38766;53.194;5.532;2023-06-22T02:27:02;19.50;99.90
51557;DHT22;38766;53.194;5.532;2023-06-22T02:29:28;19.50;99.90
51557;DHT22;38766;53.194;5.532;2023-06-22T02:31:54;19.50;99.90
51557;DHT22;38766;53.194;5.532;2023-06-22T02:34:21;19.40;99.90
51557;DHT22;38766;53.194;5.532;2023-06-22T02:36:48;19.30;99.90
51557;DHT22;38766;53.194;5.532;2023-06-22T02:39:21;19.40;99.90
51557;DHT22;38766;53.194;5.532;2023-06-22T02:41:48;19.30;99.90
51557;DHT22;38766;53.194;5.532;2023-06-22T02:44:14;19.30;99.90
51557;DHT22;38766;53.194;5.532;2023-06-22T02:46:39;19.40;99.90
51557;DHT22;38766;53.194;5.532;2023-06-22T02:49:05;19.30;99.90
51557;DHT22;38766;53.194;5.532;2023-06-22T02:51:33;19.30;99.90
51557;DHT22;38766;53.194;5.532;2023-06-22T02:53:59;19.20;99.90
51557;DHT22;38766;53.194;5.532;2023-06-22T02:56:26;19.20;99.90
51557;DHT22;38766;53.194;5.532;2023-06-22T02:58:52;19.30;99.90
51557;DHT22;38766;53.194;5.532;2023-06-22T03:01:20;19.20;99.90
51557;DHT22;38766;53.194;5.532;2023-06-22T03:03:49;19.30;99.90
51557;DHT22;38766;53.194;5.532;2023-06-22T03:06:15;19.30;99.90
51557;DHT22;38766;53.194;5.532;2023-06-22T03:08:41;19.20;99.90
51557;DHT22;38766;53.194;5.532;2023-06-22T03:11:07;19.20;99.90
51557;DHT22;38766;53.194;5.532;2023-06-22T03:13:33;19.30;99.90
51557;DHT22;38766;53.194;5.532;2023-06-22T03:15:59;19.20;99.90
51557;DHT22;38766;53.194;5.532;2023-06-22T03:18:25;19.20;99.90
51557;DHT22;38766;53.194;5.532;2023-06-22T03:20:50;19.20;99.90
51557;DHT22;38766;53.194;5.532;2023-06-22T03:23:16;19.10;99.90
51557;DHT22;38766;53.194;5.532;2023-06-22T03:25:42;19.10;99.90
51557;DHT22;38766;53.194;5.532;2023-06-22T03:28:10;19.10;99.90
51557;DHT22;38766;53.194;5.532;2023-06-22T03:30:35;19.10;99.90
51557;DHT22;38766;53.194;5.532;2023-06-22T03:33:01;19.10;99.90
51557;DHT22;38766;53.194;5.532;2023-06-22T03:35:27;19.10;99.90
51557;DHT22;38766;53.194;5.532;2023-06-22T03:37:53;19.10;99.90
51557;DHT22;38766;53.194;5.532;2023-06-22T03:40:18;19.10;99.90
51557;DHT22;38766;53.194;5.532;2023-06-22T03:42:45;19.10;99.90
51557;DHT22;38766;53.194;5.532;2023-06-22T03:45:10;19.10;99.90
51557;DHT22;38766;53.194;5.532;2023-06-22T03:47:36;19.00;99.90
51557;DHT22;38766;53.194;5.532;2023-06-22T03:50:02;19.10;99.90
51557;DHT22;38766;53.194;5.532;2023-06-22T03:52:29;19.10;99.90
51557;DHT22;38766;53.194;5.532;2023-06-22T03:54:55;19.10;99.90
51557;DHT22;38766;53.194;5.532;2023-06-22T03:57:21;19.20;99.90
51557;DHT22;38766;53.194;5.532;2023-06-22T03:59:47;19.10;99.90
51557;DHT22;38766;53.194;5.532;2023-06-22T04:02:12;19.20;99.90
51557;DHT22;38766;53.194;5.532;2023-06-22T04:04:38;19.10;99.90
51557;DHT22;38766;53.194;5.532;2023-06-22T04:07:05;19.20;99.90
51557;DHT22;38766;53.194;5.532;2023-06-22T04:09:30;19.20;99.90
51557;DHT22;38766;53.194;5.532;2023-06-22T04:11:56;19.30;99.90
51557;DHT22;38766;53.194;5.532;2023-06-22T04:14:22;19.30;99.90
51557;DHT22;38766;53.194;5.532;2023-06-22T04:16:47;19.30;99.90
51557;DHT22;38766;53.194;5.532;2023-06-22T04:19:13;19.30;99.90
51557;DHT22;38766;53.194;5.532;2023-06-22T04:21:44;19.30;99.90
51557;DHT22;38766;53.194;5.532;2023-06-22T04:24:11;19.30;99.90
51557;DHT22;38766;53.194;5.532;2023-06-22T04:26:37;19.30;99.90
51557;DHT22;38766;53.194;5.532;2023-06-22T04:29:05;19.30;99.90
51557;DHT22;38766;53.194;5.532;2023-06-22T04:31:32;19.40;99.90
51557;DHT22;38766;53.194;5.532;2023-06-22T04:34:05;19.40;99.90
51557;DHT22;38766;53.194;5.532;2023-06-22T04:36:37;19.40;99.90
51557;DHT22;38766;53.194;5.532;2023-06-22T04:39:07;19.40;99.90
51557;DHT22;38766;53.194;5.532;2023-06-22T04:41:38;19.40;99.90
51557;DHT22;38766;53.194;5.532;2023-06-22T04:44:14;19.40;99.90
51557;DHT22;38766;53.194;5.532;2023-06-22T04:46:49;19.40;99.90
51557;DHT22;38766;53.194;5.532;2023-06-22T04:49:20;19.40;99.90
51557;DHT22;38766;53.194;5.532;2023-06-22T04:51:46;19.40;99.90
51557;DHT22;38766;53.194;5.532;2023-06-22T04:54:11;19.40;99.90
51557;DHT22;38766;53.194;5.532;2023-06-22T04:56:37;19.40;99.90
51557;DHT22;38766;53.194;5.532;2023-06-22T04:59:06;19.40;99.90
51557;DHT22;38766;53.194;5.532;2023-06-22T05:01:32;19.40;99.90
51557;DHT22;38766;53.194;5.532;2023-06-22T05:03:58;19.40;99.90
51557;DHT22;38766;53.194;5.532;2023-06-22T05:06:26;19.40;99.90
51557;DHT22;38766;53.194;5.532;2023-06-22T05:08:54;19.40;99.90
51557;DHT22;38766;53.194;5.532;2023-06-22T05:11:25;19.40;99.90
51557;DHT22;38766;53.194;5.532;2023-06-22T05:13:54;19.40;99.90
51557;DHT22;38766;53.194;5.532;2023-06-22T05:16:20;19.40;99.90
51557;DHT22;38766;53.194;5.532;2023-06-22T05:18:58;19.40;99.90
51557;DHT22;38766;53.194;5.532;2023-06-22T05:21:26;19.40;99.90
51557;DHT22;38766;53.194;5.532;2023-06-22T05:23:53;19.40;99.90
51557;DHT22;38766;53.194;5.532;2023-06-22T05:26:20;19.40;99.90
51557;DHT22;38766;53.194;5.532;2023-06-22T05:28:46;19.40;99.90
51557;DHT22;38766;53.194;5.532;2023-06-22T05:31:16;19.40;99.90
51557;DHT22;38766;53.194;5.532;2023-06-22T05:33:42;19.40;99.90
51557;DHT22;38766;53.194;5.532;2023-06-22T05:36:08;19.40;99.90
51557;DHT22;38766;53.194;5.532;2023-06-22T05:38:35;19.40;99.90
51557;DHT22;38766;53.194;5.532;2023-06-22T05:41:01;19.40;99.90
51557;DHT22;38766;53.194;5.532;2023-06-22T05:43:26;19.50;99.90
51557;DHT22;38766;53.194;5.532;2023-06-22T05:45:52;19.50;99.90
51557;DHT22;38766;53.194;5.532;2023-06-22T05:48:18;19.50;99.90
51557;DHT22;38766;53.194;5.532;2023-06-22T05:50:43;19.50;99.90
51557;DHT22;38766;53.194;5.532;2023-06-22T05:53:09;19.50;99.90
51557;DHT22;38766;53.194;5.532;2023-06-22T05:55:35;19.50;99.90
51557;DHT22;38766;53.194;5.532;2023-06-22T05:58:00;19.50;99.90
51557;DHT22;38766;53.194;5.532;2023-06-22T06:00:26;19.50;99.90
51557;DHT22;38766;53.194;5.532;2023-06-22T06:02:52;19.50;99.90
51557;DHT22;38766;53.194;5.532;2023-06-22T06:05:21;19.50;99.90
51557;DHT22;38766;53.194;5.532;2023-06-22T06:07:46;19.50;99.90
51557;DHT22;38766;53.194;5.532;2023-06-22T06:10:12;19.50;99.90
51557;DHT22;38766;53.194;5.532;2023-06-22T06:12:38;19.50;99.90
51557;DHT22;38766;53.194;5.532;2023-06-22T06:15:04;19.50;99.90
51557;DHT22;38766;53.194;5.532;2023-06-22T06:17:30;19.60;99.90
51557;DHT22;38766;53.194;5.532;2023-06-22T06:19:56;19.60;99.90
51557;DHT22;38766;53.194;5.532;2023-06-22T06:22:22;19.60;99.90
51557;DHT22;38766;53.194;5.532;2023-06-22T06:24:49;19.60;99.90
51557;DHT22;38766;53.194;5.532;2023-06-22T06:27:15;19.70;99.90
51557;DHT22;38766;53.194;5.532;2023-06-22T06:29:43;19.70;99.90
51557;DHT22;38766;53.194;5.532;2023-06-22T06:32:11;19.70;99.90
51557;DHT22;38766;53.194;5.532;2023-06-22T06:34:37;19.80;99.90
51557;DHT22;38766;53.194;5.532;2023-06-22T06:37:03;19.70;99.90
51557;DHT22;38766;53.194;5.532;2023-06-22T06:39:29;19.80;99.90
51557;DHT22;38766;53.194;5.532;2023-06-22T06:41:54;19.90;99.90
51557;DHT22;38766;53.194;5.532;2023-06-22T06:44:20;19.90;99.90
51557;DHT22;38766;53.194;5.532;2023-06-22T06:46:46;20.00;99.90
51557;DHT22;38766;53.194;5.532;2023-06-22T06:49:12;20.00;99.90
51557;DHT22;38766;53.194;5.532;2023-06-22T06:51:38;20.10;99.90
51557;DHT22;38766;53.194;5.532;2023-06-22T06:54:04;20.20;99.90
51557;DHT22;38766;53.194;5.532;2023-06-22T06:56:30;20.30;99.90
51557;DHT22;38766;53.194;5.532;2023-06-22T06:58:55;20.40;99.90
51557;DHT22;38766;53.194;5.532;2023-06-22T07:01:21;20.50;99.90
51557;DHT22;38766;53.194;5.532;2023-06-22T07:03:46;20.70;99.90
51557;DHT22;38766;53.194;5.532;2023-06-22T07:06:13;20.80;99.90
51557;DHT22;38766;53.194;5.532;2023-06-22T07:08:39;21.00;99.90
51557;DHT22;38766;53.194;5.532;2023-06-22T07:11:05;21.20;99.90
51557;DHT22;38766;53.194;5.532;2023-06-22T07:13:31;21.40;99.90
51557;DHT22;38766;53.194;5.532;2023-06-22T07:15:57;21.50;99.90
51557;DHT22;38766;53.194;5.532;2023-06-22T07:18:23;21.70;99.90
51557;DHT22;38766;53.194;5.532;2023-06-22T07:20:48;21.80;99.90
51557;DHT22;38766;53.194;5.532;2023-06-22T07:23:14;22.00;99.90
51557;DHT22;38766;53.194;5.532;2023-06-22T07:25:40;22.20;99.90
51557;DHT22;38766;53.194;5.532;2023-06-22T07:28:07;22.30;99.90
51557;DHT22;38766;53.194;5.532;2023-06-22T07:30:33;22.50;99.90
51557;DHT22;38766;53.194;5.532;2023-06-22T07:33:00;22.60;99.90
51557;DHT22;38766;53.194;5.532;2023-06-22T07:35:30;22.70;99.90
51557;DHT22;38766;53.194;5.532;2023-06-22T07:37:56;22.80;99.90
51557;DHT22;38766;53.194;5.532;2023-06-22T07:40:22;23.00;99.90
51557;DHT22;38766;53.194;5.532;2023-06-22T07:42:50;23.00;99.90
51557;DHT22;38766;53.194;5.532;2023-06-22T07:45:18;23.10;99.90
51557;DHT22;38766;53.194;5.532;2023-06-22T07:47:43;23.20;99.90
51557;DHT22;38766;53.194;5.532;2023-06-22T07:50:10;23.30;99.90
51557;DHT22;38766;53.194;5.532;2023-06-22T07:52:35;23.40;99.90
51557;DHT22;38766;53.194;5.532;2023-06-22T07:55:01;23.40;99.90
51557;DHT22;38766;53.194;5.532;2023-06-22T07:57:28;23.50;99.90
51557;DHT22;38766;53.194;5.532;2023-06-22T08:00:04;23.60;99.90
51557;DHT22;38766;53.194;5.532;2023-06-22T08:02:38;23.70;99.90
51557;DHT22;38766;53.194;5.532;2023-06-22T08:05:04;23.70;99.90
51557;DHT22;38766;53.194;5.532;2023-06-22T08:07:32;23.90;99.90
51557;DHT22;38766;53.194;5.532;2023-06-22T08:09:58;24.00;99.90
51557;DHT22;38766;53.194;5.532;2023-06-22T08:12:24;24.10;99.90
51557;DHT22;38766;53.194;5.532;2023-06-22T08:14:50;24.10;99.90
51557;DHT22;38766;53.194;5.532;2023-06-22T08:17:15;24.20;99.90
51557;DHT22;38766;53.194;5.532;2023-06-22T08:19:41;24.20;99.90
51557;DHT22;38766;53.194;5.532;2023-06-22T08:22:07;24.30;99.90
51557;DHT22;38766;53.194;5.532;2023-06-22T08:24:32;24.30;99.90
51557;DHT22;38766;53.194;5.532;2023-06-22T08:26:58;24.40;99.90
51557;DHT22;38766;53.194;5.532;2023-06-22T08:29:24;24.50;99.90
51557;DHT22;38766;53.194;5.532;2023-06-22T08:31:50;24.50;99.90
51557;DHT22;38766;53.194;5.532;2023-06-22T08:34:15;24.60;99.90
51557;DHT22;38766;53.194;5.532;2023-06-22T08:36:41;24.60;99.90
51557;DHT22;38766;53.194;5.532;2023-06-22T08:39:10;24.70;99.90
51557;DHT22;38766;53.194;5.532;2023-06-22T08:41:36;24.60;99.90
51557;DHT22;38766;53.194;5.532;2023-06-22T08:44:01;24.60;99.90
51557;DHT22;38766;53.194;5.532;2023-06-22T08:46:28;24.60;99.90
51557;DHT22;38766;53.194;5.532;2023-06-22T08:48:57;24.70;99.90
51557;DHT22;38766;53.194;5.532;2023-06-22T08:51:26;24.80;99.90
51557;DHT22;38766;53.194;5.532;2023-06-22T08:53:52;24.90;99.90
51557;DHT22;38766;53.194;5.532;2023-06-22T08:56:18;24.90;99.90
51557;DHT22;38766;53.194;5.532;2023-06-22T08:58:44;24.90;99.90
51557;DHT22;38766;53.194;5.532;2023-06-22T09:01:10;24.90;99.90
51557;DHT22;38766;53.194;5.532;2023-06-22T09:03:35;25.00;99.90
51557;DHT22;38766;53.194;5.532;2023-06-22T09:06:03;25.10;99.90
51557;DHT22;38766;53.194;5.532;2023-06-22T09:08:28;25.20;99.90
51557;DHT22;38766;53.194;5.532;2023-06-22T09:10:54;25.30;99.90
51557;DHT22;38766;53.194;5.532;2023-06-22T09:13:20;25.40;99.90
51557;DHT22;38766;53.194;5.532;2023-06-22T09:15:46;25.50;99.90
51557;DHT22;38766;53.194;5.532;2023-06-22T09:18:11;25.60;99.90
51557;DHT22;38766;53.194;5.532;2023-06-22T09:20:37;25.50;99.90
51557;DHT22;38766;53.194;5.532;2023-06-22T09:23:03;25.50;99.90
51557;DHT22;38766;53.194;5.532;2023-06-22T09:25:28;25.60;99.90
51557;DHT22;38766;53.194;5.532;2023-06-22T09:27:54;25.70;99.90
51557;DHT22;38766;53.194;5.532;2023-06-22T09:30:20;25.80;99.90
51557;DHT22;38766;53.194;5.532;2023-06-22T09:32:45;25.80;99.90
51557;DHT22;38766;53.194;5.532;2023-06-22T09:35:11;25.90;99.90
51557;DHT22;38766;53.194;5.532;2023-06-22T09:37:39;26.00;99.90
51557;DHT22;38766;53.194;5.532;2023-06-22T09:40:06;26.10;99.90
51557;DHT22;38766;53.194;5.532;2023-06-22T09:42:35;26.10;99.90
51557;DHT22;38766;53.194;5.532;2023-06-22T09:45:01;26.20;99.90
51557;DHT22;38766;53.194;5.532;2023-06-22T09:47:27;26.20;99.90
51557;DHT22;38766;53.194;5.532;2023-06-22T09:49:53;26.20;99.90
51557;DHT22;38766;53.194;5.532;2023-06-22T09:52:21;26.30;99.90
51557;DHT22;38766;53.194;5.532;2023-06-22T09:54:47;26.30;99.90
51557;DHT22;38766;53.194;5.532;2023-06-22T09:57:12;26.40;99.90
51557;DHT22;38766;53.194;5.532;2023-06-22T09:59:38;26.40;99.90
51557;DHT22;38766;53.194;5.532;2023-06-22T10:02:06;26.40;99.90
51557;DHT22;38766;53.194;5.532;2023-06-22T10:04:32;26.50;99.90
51557;DHT22;38766;53.194;5.532;2023-06-22T10:06:58;26.50;99.90
51557;DHT22;38766;53.194;5.532;2023-06-22T10:09:24;26.50;99.90
51557;DHT22;38766;53.194;5.532;2023-06-22T10:11:49;26.50;99.90
51557;DHT22;38766;53.194;5.532;2023-06-22T10:14:15;26.50;99.90
51557;DHT22;38766;53.194;5.532;2023-06-22T10:16:40;26.60;99.90
51557;DHT22;38766;53.194;5.532;2023-06-22T10:19:06;26.60;99.90
51557;DHT22;38766;53.194;5.532;2023-06-22T10:21:32;26.70;99.90
51557;DHT22;38766;53.194;5.532;2023-06-22T10:23:58;26.70;99.90
51557;DHT22;38766;53.194;5.532;2023-06-22T10:26:27;26.70;99.90
51557;DHT22;38766;53.194;5.532;2023-06-22T10:28:54;26.70;99.90
51557;DHT22;38766;53.194;5.532;2023-06-22T10:31:20;26.70;99.90
51557;DHT22;38766;53.194;5.532;2023-06-22T10:33:45;26.70;99.90
51557;DHT22;38766;53.194;5.532;2023-06-22T10:36:11;26.70;99.90
51557;DHT22;38766;53.194;5.532;2023-06-22T10:38:37;26.70;99.90
51557;DHT22;38766;53.194;5.532;2023-06-22T10:41:02;26.80;99.90
51557;DHT22;38766;53.194;5.532;2023-06-22T10:43:28;26.80;99.90
51557;DHT22;38766;53.194;5.532;2023-06-22T10:45:54;26.90;99.90
51557;DHT22;38766;53.194;5.532;2023-06-22T10:48:19;26.90;99.90
51557;DHT22;38766;53.194;5.532;2023-06-22T10:50:46;26.90;99.90
51557;DHT22;38766;53.194;5.532;2023-06-22T10:53:11;27.00;99.90
51557;DHT22;38766;53.194;5.532;2023-06-22T10:55:37;27.10;99.90
51557;DHT22;38766;53.194;5.532;2023-06-22T10:58:03;27.20;99.90
51557;DHT22;38766;53.194;5.532;2023-06-22T11:00:28;27.30;99.90
51557;DHT22;38766;53.194;5.532;2023-06-22T11:02:54;27.50;99.90
51557;DHT22;38766;53.194;5.532;2023-06-22T11:05:19;27.50;99.70
51557;DHT22;38766;53.194;5.532;2023-06-22T11:07:45;27.50;99.60
51557;DHT22;38766;53.194;5.532;2023-06-22T11:10:12;27.50;99.40
51557;DHT22;38766;53.194;5.532;2023-06-22T11:12:38;27.50;99.40
51557;DHT22;38766;53.194;5.532;2023-06-22T11:15:04;27.40;99.20
51557;DHT22;38766;53.194;5.532;2023-06-22T11:17:30;27.40;99.10
51557;DHT22;38766;53.194;5.532;2023-06-22T11:19:56;27.30;98.90
51557;DHT22;38766;53.194;5.532;2023-06-22T11:22:21;27.30;98.80
51557;DHT22;38766;53.194;5.532;2023-06-22T11:24:47;27.30;98.70
51557;DHT22;38766;53.194;5.532;2023-06-22T11:27:13;27.30;98.60
51557;DHT22;38766;53.194;5.532;2023-06-22T11:29:39;27.20;98.70
51557;DHT22;38766;53.194;5.532;2023-06-22T11:32:06;27.20;99.20
51557;DHT22;38766;53.194;5.532;2023-06-22T11:34:32;27.20;99.40
51557;DHT22;38766;53.194;5.532;2023-06-22T11:36:58;27.10;99.40
51557;DHT22;38766;53.194;5.532;2023-06-22T11:39:23;27.10;99.70
51557;DHT22;38766;53.194;5.532;2023-06-22T11:41:49;27.00;99.90
51557;DHT22;38766;53.194;5.532;2023-06-22T11:44:15;26.90;99.90
51557;DHT22;38766;53.194;5.532;2023-06-22T11:46:40;27.00;99.90
51557;DHT22;38766;53.194;5.532;2023-06-22T11:49:06;27.00;99.90
51557;DHT22;38766;53.194;5.532;2023-06-22T11:51:31;27.00;99.90
51557;DHT22;38766;53.194;5.532;2023-06-22T11:53:57;27.10;99.90
51557;DHT22;38766;53.194;5.532;2023-06-22T11:56:24;27.20;99.90
51557;DHT22;38766;53.194;5.532;2023-06-22T11:58:49;27.20;99.90
51557;DHT22;38766;53.194;5.532;2023-06-22T12:01:15;27.30;99.90
51557;DHT22;38766;53.194;5.532;2023-06-22T12:03:41;27.30;99.90
51557;DHT22;38766;53.194;5.532;2023-06-22T12:06:09;27.30;99.90
51557;DHT22;38766;53.194;5.532;2023-06-22T12:08:34;27.30;99.80
51557;DHT22;38766;53.194;5.532;2023-06-22T12:11:00;27.30;99.80
51557;DHT22;38766;53.194;5.532;2023-06-22T12:13:26;27.30;99.70
51557;DHT22;38766;53.194;5.532;2023-06-22T12:15:51;27.40;99.40
51557;DHT22;38766;53.194;5.532;2023-06-22T12:18:18;27.30;99.10
51557;DHT22;38766;53.194;5.532;2023-06-22T12:20:46;27.30;98.90
51557;DHT22;38766;53.194;5.532;2023-06-22T12:23:12;27.40;98.80
51557;DHT22;38766;53.194;5.532;2023-06-22T12:25:37;27.30;98.70
51557;DHT22;38766;53.194;5.532;2023-06-22T12:28:03;27.30;98.70
51557;DHT22;38766;53.194;5.532;2023-06-22T12:30:30;27.30;98.60
51557;DHT22;38766;53.194;5.532;2023-06-22T12:32:56;27.30;98.30
51557;DHT22;38766;53.194;5.532;2023-06-22T12:35:21;27.20;98.20
51557;DHT22;38766;53.194;5.532;2023-06-22T12:37:47;27.10;98.20
51557;DHT22;38766;53.194;5.532;2023-06-22T12:40:13;27.00;98.10
51557;DHT22;38766;53.194;5.532;2023-06-22T12:42:39;27.00;98.10
51557;DHT22;38766;53.194;5.532;2023-06-22T12:45:05;26.90;98.20
51557;DHT22;38766;53.194;5.532;2023-06-22T12:47:34;26.90;98.00
51557;DHT22;38766;53.194;5.532;2023-06-22T12:49:59;26.90;98.00
51557;DHT22;38766;53.194;5.532;2023-06-22T12:52:25;26.80;97.80
51557;DHT22;38766;53.194;5.532;2023-06-22T12:54:51;26.70;97.80
51557;DHT22;38766;53.194;5.532;2023-06-22T12:57:17;26.70;97.90
51557;DHT22;38766;53.194;5.532;2023-06-22T12:59:45;26.60;97.50
51557;DHT22;38766;53.194;5.532;2023-06-22T13:02:11;26.50;97.50
51557;DHT22;38766;53.194;5.532;2023-06-22T13:04:36;26.50;97.50
51557;DHT22;38766;53.194;5.532;2023-06-22T13:07:02;26.40;97.40
51557;DHT22;38766;53.194;5.532;2023-06-22T13:09:28;26.40;97.20
51557;DHT22;38766;53.194;5.532;2023-06-22T13:11:53;26.30;97.10
51557;DHT22;38766;53.194;5.532;2023-06-22T13:14:19;26.30;97.00
51557;DHT22;38766;53.194;5.532;2023-06-22T13:16:45;26.20;97.00
51557;DHT22;38766;53.194;5.532;2023-06-22T13:19:10;26.20;96.90
51557;DHT22;38766;53.194;5.532;2023-06-22T13:21:36;26.10;97.00
51557;DHT22;38766;53.194;5.532;2023-06-22T13:24:01;26.00;96.80
51557;DHT22;38766;53.194;5.532;2023-06-22T13:26:28;25.90;96.70
51557;DHT22;38766;53.194;5.532;2023-06-22T13:28:54;25.80;96.70
51557;DHT22;38766;53.194;5.532;2023-06-22T13:31:20;25.70;96.60
51557;DHT22;38766;53.194;5.532;2023-06-22T13:33:46;25.60;96.60
51557;DHT22;38766;53.194;5.532;2023-06-22T13:36:13;25.60;96.50
51557;DHT22;38766;53.194;5.532;2023-06-22T13:38:39;25.50;96.50
51557;DHT22;38766;53.194;5.532;2023-06-22T13:41:05;25.50;96.40
51557;DHT22;38766;53.194;5.532;2023-06-22T13:43:31;25.50;96.10
51557;DHT22;38766;53.194;5.532;2023-06-22T13:45:57;25.40;95.90
51557;DHT22;38766;53.194;5.532;2023-06-22T13:48:22;25.30;96.20
51557;DHT22;38766;53.194;5.532;2023-06-22T13:50:49;25.20;96.10
51557;DHT22;38766;53.194;5.532;2023-06-22T13:53:15;25.20;96.00
51557;DHT22;38766;53.194;5.532;2023-06-22T13:55:40;25.20;95.90
51557;DHT22;38766;53.194;5.532;2023-06-22T13:58:06;25.10;95.90
51557;DHT22;38766;53.194;5.532;2023-06-22T14:00:32;25.00;95.90
51557;DHT22;38766;53.194;5.532;2023-06-22T14:02:57;24.90;95.60
51557;DHT22;38766;53.194;5.532;2023-06-22T14:05:23;24.90;95.60
51557;DHT22;38766;53.194;5.532;2023-06-22T14:07:49;24.90;95.70
51557;DHT22;38766;53.194;5.532;2023-06-22T14:10:14;24.80;95.70
51557;DHT22;38766;53.194;5.532;2023-06-22T14:12:40;24.80;95.80
51557;DHT22;38766;53.194;5.532;2023-06-22T14:15:06;24.70;95.70
51557;DHT22;38766;53.194;5.532;2023-06-22T14:17:32;24.70;95.70
51557;DHT22;38766;53.194;5.532;2023-06-22T14:19:58;24.60;95.90
51557;DHT22;38766;53.194;5.532;2023-06-22T14:22:23;24.70;95.90
51557;DHT22;38766;53.194;5.532;2023-06-22T14:24:49;24.60;96.10
51557;DHT22;38766;53.194;5.532;2023-06-22T14:27:15;24.60;96.10
51557;DHT22;38766;53.194;5.532;2023-06-22T14:29:42;24.50;96.20
51557;DHT22;38766;53.194;5.532;2023-06-22T14:32:08;24.50;96.30
51557;DHT22;38766;53.194;5.532;2023-06-22T14:34:34;24.50;96.30
51557;DHT22;38766;53.194;5.532;2023-06-22T14:37:02;24.50;96.20
51557;DHT22;38766;53.194;5.532;2023-06-22T14:39:28;24.40;96.20
51557;DHT22;38766;53.194;5.532;2023-06-22T14:41:53;24.40;96.30
51557;DHT22;38766;53.194;5.532;2023-06-22T14:44:19;24.40;96.50
51557;DHT22;38766;53.194;5.532;2023-06-22T14:46:45;24.30;96.50
51557;DHT22;38766;53.194;5.532;2023-06-22T14:49:10;24.30;96.50
51557;DHT22;38766;53.194;5.532;2023-06-22T14:51:36;24.20;96.40
51557;DHT22;38766;53.194;5.532;2023-06-22T14:54:02;24.10;96.40
51557;DHT22;38766;53.194;5.532;2023-06-22T14:56:27;24.10;96.50
51557;DHT22;38766;53.194;5.532;2023-06-22T14:58:53;24.10;96.60
51557;DHT22;38766;53.194;5.532;2023-06-22T15:01:18;24.00;96.50
51557;DHT22;38766;53.194;5.532;2023-06-22T15:03:45;24.00;96.50
51557;DHT22;38766;53.194;5.532;2023-06-22T15:06:11;23.90;96.50
51557;DHT22;38766;53.194;5.532;2023-06-22T15:08:40;23.90;96.70
51557;DHT22;38766;53.194;5.532;2023-06-22T15:11:06;23.90;97.00
51557;DHT22;38766;53.194;5.532;2023-06-22T15:13:32;23.90;97.20
51557;DHT22;38766;53.194;5.532;2023-06-22T15:16:02;23.90;97.30
51557;DHT22;38766;53.194;5.532;2023-06-22T15:18:29;23.90;97.30
51557;DHT22;38766;53.194;5.532;2023-06-22T15:20:55;23.90;97.30
51557;DHT22;38766;53.194;5.532;2023-06-22T15:23:21;23.90;97.30
51557;DHT22;38766;53.194;5.532;2023-06-22T15:25:46;23.90;97.30
51557;DHT22;38766;53.194;5.532;2023-06-22T15:28:12;23.90;97.40
51557;DHT22;38766;53.194;5.532;2023-06-22T15:30:38;23.80;97.40
51557;DHT22;38766;53.194;5.532;2023-06-22T15:33:04;23.80;97.40
51557;DHT22;38766;53.194;5.532;2023-06-22T15:35:30;23.70;97.40